createdAt,value
2022-11-05T00:01:12.527Z,21.88
2022-11-05T00:06:32.830Z,24.92
2022-11-05T00:12:03.722Z,19.33
2022-11-05T00:17:05.495Z,19.98
2022-11-05T00:22:25.788Z,18.17
2022-11-05T00:27:27.591Z,24.10
2022-11-05T00:32:29.345Z,21.38
2022-11-05T00:37:31.078Z,19.80
2022-11-05T00:42:51.406Z,23.55
2022-11-05T00:48:11.817Z,19.95
2022-11-05T00:53:13.806Z,28.55
2022-11-05T00:58:19.100Z,17.92
2022-11-05T01:03:23.932Z,21.40
2022-11-05T01:08:27.661Z,16.90
2022-11-05T01:13:30.344Z,18.30
2022-11-05T01:18:32.088Z,19.08
2022-11-05T01:23:33.816Z,16.15
2022-11-05T01:28:35.609Z,17.30
2022-11-05T01:33:37.401Z,16.70
2022-11-05T01:38:39.302Z,19.35
2022-11-05T01:43:56.613Z,17.40
2022-11-05T01:49:10.621Z,20.77
2022-11-05T01:54:16.738Z,20.75
2022-11-05T01:59:28.633Z,22.13
2022-11-05T02:04:54.661Z,20.70
2022-11-05T02:10:04.370Z,22.15
2022-11-05T02:15:07.008Z,21.33
2022-11-05T02:20:52.008Z,20.00
2022-11-05T02:26:27.795Z,16.73
2022-11-05T02:31:44.695Z,20.08
2022-11-05T02:36:51.680Z,16.98
2022-11-05T02:42:07.685Z,15.77
2022-11-05T02:47:18.439Z,18.55
2022-11-05T02:52:32.300Z,17.25
2022-11-05T02:57:37.206Z,18.30
2022-11-05T03:02:39.060Z,20.23
2022-11-05T03:07:56.661Z,18.75
2022-11-05T03:13:01.437Z,19.63
2022-11-05T03:18:35.636Z,24.05
2022-11-05T03:23:56.154Z,21.77
2022-11-05T03:29:08.711Z,22.80
2022-11-05T03:34:13.058Z,25.73
2022-11-05T03:39:20.509Z,26.25
2022-11-05T03:44:27.238Z,25.00
2022-11-05T03:49:35.622Z,22.15
2022-11-05T03:54:37.867Z,21.38
2022-11-05T03:59:43.711Z,27.77
2022-11-05T04:04:45.918Z,23.60
2022-11-05T04:10:06.063Z,26.38
2022-11-05T04:15:08.568Z,23.33
2022-11-05T04:20:29.263Z,26.85
2022-11-05T04:25:31.063Z,24.90
2022-11-05T04:30:32.799Z,28.27
2022-11-05T04:35:46.033Z,23.33
2022-11-05T04:40:48.453Z,27.55
2022-11-05T04:45:50.147Z,25.80
2022-11-05T04:50:51.895Z,23.85
2022-11-05T04:55:53.695Z,28.80
2022-11-05T05:00:55.465Z,26.52
2022-11-05T05:06:03.524Z,25.58
2022-11-05T05:11:07.942Z,26.02
2022-11-05T05:16:24.884Z,25.55
2022-11-05T05:21:38.683Z,24.95
2022-11-05T05:26:43.059Z,24.02
2022-11-05T05:31:45.145Z,24.90
2022-11-05T05:36:46.885Z,20.70
2022-11-05T05:41:48.684Z,21.45
2022-11-05T05:46:50.595Z,23.58
2022-11-05T05:51:52.339Z,27.10
2022-11-05T05:56:54.121Z,31.55
2022-11-05T06:01:55.938Z,27.08
2022-11-05T06:06:57.815Z,26.85
2022-11-05T06:11:59.582Z,30.98
2022-11-05T06:17:01.321Z,29.17
2022-11-05T06:22:03.072Z,25.30
2022-11-05T06:27:05.063Z,28.10
2022-11-05T06:32:06.973Z,30.20
2022-11-05T06:37:08.743Z,29.80
2022-11-05T06:42:18.951Z,28.00
2022-11-05T06:47:21.325Z,27.15
2022-11-05T06:52:23.156Z,24.98
2022-11-05T06:57:25.000Z,26.42
2022-11-05T07:02:26.863Z,27.73
2022-11-05T07:07:28.690Z,26.20
2022-11-05T07:12:30.414Z,24.33
2022-11-05T07:17:33.215Z,23.30
2022-11-05T07:22:35.723Z,22.70
2022-11-05T07:27:39.965Z,20.83
2022-11-05T07:32:42.133Z,26.55
2022-11-05T07:37:45.610Z,20.00
2022-11-05T07:42:49.984Z,21.13
2022-11-05T07:47:57.412Z,30.52
2022-11-05T07:53:04.063Z,44.47
2022-11-05T07:58:06.083Z,23.15
2022-11-05T08:03:13.509Z,29.83
2022-11-05T08:08:18.000Z,20.38
2022-11-05T08:13:19.777Z,29.50
2022-11-05T08:18:21.537Z,67.13
2022-11-05T08:23:23.385Z,23.55
2022-11-05T08:28:26.427Z,22.02
2022-11-05T08:33:29.543Z,18.15
2022-11-05T08:38:31.609Z,19.00
2022-11-05T08:43:33.390Z,21.50
2022-11-05T08:48:35.167Z,22.27
2022-11-05T08:53:36.923Z,16.65
2022-11-05T08:58:38.719Z,14.05
2022-11-05T09:03:40.525Z,19.33
2022-11-05T09:08:42.360Z,18.67
2022-11-05T09:13:44.608Z,19.05
2022-11-05T09:18:46.476Z,17.00
2022-11-05T09:23:48.454Z,18.70
2022-11-05T09:28:51.436Z,17.95
2022-11-05T09:33:53.287Z,22.83
2022-11-05T09:38:55.114Z,15.05
2022-11-05T09:44:02.351Z,13.32
2022-11-05T09:49:07.720Z,13.77
2022-11-05T09:54:12.067Z,12.50
2022-11-05T09:59:42.514Z,15.32
2022-11-05T10:04:49.142Z,12.38
2022-11-05T10:09:59.698Z,12.55
2022-11-05T10:15:12.561Z,12.27
2022-11-05T10:20:34.812Z,13.82
2022-11-05T10:25:40.291Z,11.85
2022-11-05T10:30:43.138Z,17.52
2022-11-05T10:35:51.459Z,10.90
2022-11-05T10:41:11.506Z,9.65
2022-11-05T10:46:41.226Z,16.08
2022-11-05T10:51:43.757Z,15.25
2022-11-05T10:56:45.882Z,9.70
2022-11-05T11:01:47.835Z,12.18
2022-11-05T11:06:59.937Z,13.73
2022-11-05T11:12:13.262Z,12.27
2022-11-05T11:17:30.772Z,10.60
2022-11-05T11:22:32.613Z,9.70
2022-11-05T11:27:34.947Z,15.27
2022-11-05T11:32:39.293Z,10.90
2022-11-05T11:37:42.251Z,11.88
2022-11-05T11:42:51.173Z,10.82
2022-11-05T11:47:55.472Z,18.00
2022-11-05T11:53:21.764Z,11.55
2022-11-05T11:58:35.709Z,10.55
2022-11-05T12:03:54.342Z,11.95
2022-11-05T12:09:20.609Z,10.75
2022-11-05T12:14:51.160Z,13.55
2022-11-05T12:20:18.429Z,11.75
2022-11-05T12:25:32.686Z,87.50
2022-11-05T12:30:51.310Z,11.45
2022-11-05T12:36:10.042Z,13.98
2022-11-05T12:41:17.722Z,11.40
2022-11-05T12:46:25.485Z,10.75
2022-11-05T12:51:51.485Z,11.82
2022-11-05T12:57:01.645Z,7.75
2022-11-05T13:02:07.715Z,10.60
2022-11-05T13:07:13.635Z,13.07
2022-11-05T13:12:20.468Z,11.13
2022-11-05T13:17:30.999Z,10.65
2022-11-05T13:22:37.476Z,14.77
2022-11-05T13:27:55.858Z,11.35
2022-11-05T13:33:39.331Z,8.88
2022-11-05T13:38:59.598Z,15.23
2022-11-05T13:44:27.241Z,11.50
2022-11-05T13:50:05.906Z,8.30
2022-11-05T13:55:16.741Z,8.85
2022-11-05T14:00:22.337Z,7.68
2022-11-05T14:05:38.012Z,11.25
2022-11-05T14:10:59.477Z,6.70
2022-11-05T14:16:06.397Z,7.65
2022-11-05T14:21:47.373Z,8.50
2022-11-05T14:27:01.290Z,7.18
2022-11-05T14:32:23.841Z,6.32
2022-11-05T14:37:40.237Z,10.15
2022-11-05T14:42:54.206Z,10.68
2022-11-05T14:48:05.427Z,8.95
2022-11-05T14:53:25.866Z,7.57
2022-11-05T14:58:35.520Z,8.18
2022-11-05T15:03:45.905Z,6.95
2022-11-05T15:08:48.507Z,5.63
2022-11-05T15:13:56.232Z,7.63
2022-11-05T15:18:58.817Z,5.78
2022-11-05T15:24:02.520Z,12.95
2022-11-05T15:29:16.057Z,7.18
2022-11-05T15:34:20.918Z,6.10
2022-11-05T15:39:39.926Z,9.30
2022-11-05T15:44:45.125Z,9.00
2022-11-05T15:49:55.749Z,6.65
2022-11-05T15:55:26.992Z,5.90
2022-11-05T16:00:32.086Z,7.10
2022-11-05T16:05:36.162Z,11.80
2022-11-05T16:10:38.881Z,15.45
2022-11-05T16:15:54.153Z,10.63
2022-11-05T16:21:01.388Z,13.25
2022-11-05T16:26:03.275Z,13.65
2022-11-05T16:31:05.784Z,12.27
2022-11-05T16:36:08.864Z,7.68
2022-11-05T16:41:15.709Z,11.65
2022-11-05T16:46:17.563Z,7.40
2022-11-05T16:51:23.379Z,12.32
2022-11-05T16:56:28.144Z,12.38
2022-11-05T17:01:30.059Z,20.08
2022-11-05T17:06:32.067Z,30.17
2022-11-05T17:11:34.183Z,13.98
2022-11-05T17:16:38.288Z,12.25
2022-11-05T17:21:40.032Z,18.08
2022-11-05T17:26:41.819Z,13.27
2022-11-05T17:31:43.542Z,11.77
2022-11-05T17:36:45.268Z,11.10
2022-11-05T17:41:47.932Z,10.30
2022-11-05T17:46:49.896Z,15.40
2022-11-05T17:51:51.647Z,21.73
2022-11-05T17:56:53.409Z,20.77
2022-11-05T18:01:55.290Z,21.27
2022-11-05T18:06:57.095Z,25.42
2022-11-05T18:11:59.291Z,23.38
2022-11-05T18:17:01.142Z,26.38
2022-11-05T18:22:02.895Z,34.88
2022-11-05T18:27:04.758Z,30.42
2022-11-05T18:32:06.650Z,31.48
2022-11-05T18:37:08.442Z,33.72
2022-11-05T18:42:11.046Z,31.05
2022-11-05T18:47:13.381Z,31.85
2022-11-05T18:52:15.254Z,42.83
2022-11-05T18:57:17.057Z,43.75
2022-11-05T19:02:19.075Z,40.95
2022-11-05T19:07:23.851Z,42.25
2022-11-05T19:12:25.625Z,38.13
2022-11-05T19:17:27.425Z,41.90
2022-11-05T19:22:29.286Z,41.45
2022-11-05T19:27:31.091Z,51.20
2022-11-05T19:32:32.885Z,54.03
2022-11-05T19:37:34.722Z,52.08
2022-11-05T19:42:36.467Z,49.60
2022-11-05T19:47:38.289Z,50.05
2022-11-05T19:52:40.339Z,50.25
2022-11-05T19:57:42.188Z,49.92
2022-11-05T20:02:47.676Z,53.75
2022-11-05T20:07:52.819Z,46.53
2022-11-05T20:12:55.062Z,61.13
2022-11-05T20:17:56.880Z,49.40
2022-11-05T20:22:58.679Z,42.35
2022-11-05T20:28:00.456Z,51.72
2022-11-05T20:33:02.169Z,47.15
2022-11-05T20:38:03.943Z,52.92
2022-11-05T20:43:05.721Z,47.30
2022-11-05T20:48:07.524Z,48.67
2022-11-05T20:53:10.375Z,46.28
2022-11-05T20:58:14.373Z,48.63
2022-11-05T21:03:16.348Z,47.00
2022-11-05T21:08:20.156Z,43.90
2022-11-05T21:13:22.727Z,38.28
2022-11-05T21:18:27.264Z,39.13
2022-11-05T21:23:29.090Z,35.38
2022-11-05T21:28:31.108Z,51.53
2022-11-05T21:33:33.457Z,42.25
2022-11-05T21:38:35.731Z,45.97
2022-11-05T21:43:39.377Z,39.97
2022-11-05T21:48:41.237Z,40.15
2022-11-05T21:54:01.535Z,39.08
2022-11-05T21:59:22.795Z,37.53
2022-11-05T22:04:24.529Z,37.17
2022-11-05T22:09:26.456Z,40.28
2022-11-05T22:14:28.653Z,34.92
2022-11-05T22:19:30.963Z,39.95
2022-11-05T22:24:34.054Z,40.60
2022-11-05T22:29:36.917Z,40.50
2022-11-05T22:34:38.868Z,32.45
2022-11-05T22:39:40.779Z,37.42
2022-11-05T22:44:42.540Z,36.03
2022-11-05T22:49:45.417Z,36.40
2022-11-05T22:54:47.802Z,31.42
2022-11-05T22:59:49.845Z,30.63
2022-11-05T23:04:52.292Z,30.77
2022-11-05T23:10:12.664Z,28.23
2022-11-05T23:15:34.561Z,27.98
2022-11-05T23:20:54.751Z,32.90
2022-11-05T23:26:20.797Z,31.13
2022-11-05T23:31:41.137Z,31.40
2022-11-05T23:37:01.443Z,30.97
2022-11-05T23:42:23.589Z,31.63
2022-11-05T23:47:43.847Z,32.83
2022-11-05T23:52:45.644Z,30.58
2022-11-05T23:57:47.414Z,29.23
